sensor_id;sensor_type;location;lat;lon;timestamp;temperature;humidity
24772;DHT22;12870;52.274;9.754;2023-05-10T00:00:51;13.80;99.90
24772;DHT22;12870;52.274;9.754;2023-05-10T00:03:17;13.80;99.90
24772;DHT22;12870;52.274;9.754;2023-05-10T00:05:43;13.80;99.90
24772;DHT22;12870;52.274;9.754;2023-05-10T00:08:08;13.80;99.90
24772;DHT22;12870;52.274;9.754;2023-05-10T00:10:34;13.70;99.90
24772;DHT22;12870;52.274;9.754;2023-05-10T00:13:00;13.80;99.90
24772;DHT22;12870;52.274;9.754;2023-05-10T00:15:25;13.80;99.90
24772;DHT22;12870;52.274;9.754;2023-05-10T00:17:51;13.70;99.90
24772;DHT22;12870;52.274;9.754;2023-05-10T00:20:17;13.70;99.90
24772;DHT22;12870;52.274;9.754;2023-05-10T00:22:42;13.70;99.90
24772;DHT22;12870;52.274;9.754;2023-05-10T00:25:08;13.70;99.90
24772;DHT22;12870;52.274;9.754;2023-05-10T00:27:34;13.60;99.90
24772;DHT22;12870;52.274;9.754;2023-05-10T00:30:00;13.60;99.90
24772;DHT22;12870;52.274;9.754;2023-05-10T00:32:26;13.60;99.90
24772;DHT22;12870;52.274;9.754;2023-05-10T00:34:51;13.60;99.90
24772;DHT22;12870;52.274;9.754;2023-05-10T00:37:17;13.60;99.90
24772;DHT22;12870;52.274;9.754;2023-05-10T00:39:43;13.50;99.90
24772;DHT22;12870;52.274;9.754;2023-05-10T00:42:08;13.50;99.90
24772;DHT22;12870;52.274;9.754;2023-05-10T00:44:34;13.50;99.90
24772;DHT22;12870;52.274;9.754;2023-05-10T00:46:59;13.40;99.90
24772;DHT22;12870;52.274;9.754;2023-05-10T00:49:26;13.40;99.90
24772;DHT22;12870;52.274;9.754;2023-05-10T00:51:51;13.30;99.90
24772;DHT22;12870;52.274;9.754;2023-05-10T00:54:17;13.30;99.90
24772;DHT22;12870;52.274;9.754;2023-05-10T00:56:43;13.30;99.90
24772;DHT22;12870;52.274;9.754;2023-05-10T00:59:15;13.30;99.90
24772;DHT22;12870;52.274;9.754;2023-05-10T01:01:43;13.30;99.90
24772;DHT22;12870;52.274;9.754;2023-05-10T01:04:09;13.30;99.90
24772;DHT22;12870;52.274;9.754;2023-05-10T01:06:36;13.30;99.90
24772;DHT22;12870;52.274;9.754;2023-05-10T01:09:02;13.30;99.90
24772;DHT22;12870;52.274;9.754;2023-05-10T01:11:28;13.30;99.90
24772;DHT22;12870;52.274;9.754;2023-05-10T01:13:57;13.30;99.90
24772;DHT22;12870;52.274;9.754;2023-05-10T01:16:24;13.30;99.90
24772;DHT22;12870;52.274;9.754;2023-05-10T01:18:52;13.30;99.90
24772;DHT22;12870;52.274;9.754;2023-05-10T01:21:49;13.30;99.90
24772;DHT22;12870;52.274;9.754;2023-05-10T01:24:33;13.30;99.90
24772;DHT22;12870;52.274;9.754;2023-05-10T01:46:35;13.50;99.90
24772;DHT22;12870;52.274;9.754;2023-05-10T01:49:02;13.50;99.90
24772;DHT22;12870;52.274;9.754;2023-05-10T01:51:44;13.50;99.90
24772;DHT22;12870;52.274;9.754;2023-05-10T01:54:13;13.60;99.90
24772;DHT22;12870;52.274;9.754;2023-05-10T01:56:40;13.60;99.90
24772;DHT22;12870;52.274;9.754;2023-05-10T01:59:12;13.60;99.90
24772;DHT22;12870;52.274;9.754;2023-05-10T02:01:40;13.50;99.90
24772;DHT22;12870;52.274;9.754;2023-05-10T02:04:07;13.60;99.90
24772;DHT22;12870;52.274;9.754;2023-05-10T02:06:34;13.60;99.90
24772;DHT22;12870;52.274;9.754;2023-05-10T02:09:01;13.60;99.90
24772;DHT22;12870;52.274;9.754;2023-05-10T02:11:29;13.50;99.90
24772;DHT22;12870;52.274;9.754;2023-05-10T02:13:56;13.50;99.90
24772;DHT22;12870;52.274;9.754;2023-05-10T02:16:25;13.50;99.90
24772;DHT22;12870;52.274;9.754;2023-05-10T02:18:52;13.50;99.90
24772;DHT22;12870;52.274;9.754;2023-05-10T02:21:20;13.50;99.90
24772;DHT22;12870;52.274;9.754;2023-05-10T02:23:46;13.50;99.90
24772;DHT22;12870;52.274;9.754;2023-05-10T02:26:14;13.50;99.90
24772;DHT22;12870;52.274;9.754;2023-05-10T02:28:42;13.50;99.90
24772;DHT22;12870;52.274;9.754;2023-05-10T02:31:09;13.50;99.90
24772;DHT22;12870;52.274;9.754;2023-05-10T02:33:38;13.50;99.90
24772;DHT22;12870;52.274;9.754;2023-05-10T02:36:07;13.50;99.90
24772;DHT22;12870;52.274;9.754;2023-05-10T02:38:35;13.50;99.90
24772;DHT22;12870;52.274;9.754;2023-05-10T02:41:02;13.50;99.90
24772;DHT22;12870;52.274;9.754;2023-05-10T02:43:31;13.50;99.90
24772;DHT22;12870;52.274;9.754;2023-05-10T02:45:57;13.50;99.90
24772;DHT22;12870;52.274;9.754;2023-05-10T02:48:23;13.50;99.90
24772;DHT22;12870;52.274;9.754;2023-05-10T02:50:50;13.40;99.90
24772;DHT22;12870;52.274;9.754;2023-05-10T02:53:23;13.40;99.90
24772;DHT22;12870;52.274;9.754;2023-05-10T02:55:51;13.40;99.90
24772;DHT22;12870;52.274;9.754;2023-05-10T02:58:17;13.30;99.90
24772;DHT22;12870;52.274;9.754;2023-05-10T03:00:45;13.30;99.90
24772;DHT22;12870;52.274;9.754;2023-05-10T03:03:11;13.20;99.90
24772;DHT22;12870;52.274;9.754;2023-05-10T03:05:37;13.20;99.90
24772;DHT22;12870;52.274;9.754;2023-05-10T03:08:03;13.20;99.90
24772;DHT22;12870;52.274;9.754;2023-05-10T03:10:30;13.20;99.90
24772;DHT22;12870;52.274;9.754;2023-05-10T03:13:28;13.20;99.90
24772;DHT22;12870;52.274;9.754;2023-05-10T03:16:10;13.10;99.90
24772;DHT22;12870;52.274;9.754;2023-05-10T03:18:56;13.10;99.90
24772;DHT22;12870;52.274;9.754;2023-05-10T03:21:29;13.10;99.90
24772;DHT22;12870;52.274;9.754;2023-05-10T03:23:59;13.20;99.90
24772;DHT22;12870;52.274;9.754;2023-05-10T03:26:30;13.20;99.90
24772;DHT22;12870;52.274;9.754;2023-05-10T03:28:57;13.20;99.90
24772;DHT22;12870;52.274;9.754;2023-05-10T03:31:24;13.20;99.90
24772;DHT22;12870;52.274;9.754;2023-05-10T03:33:51;13.20;99.90
24772;DHT22;12870;52.274;9.754;2023-05-10T03:36:18;13.20;99.90
24772;DHT22;12870;52.274;9.754;2023-05-10T03:38:44;13.20;99.90
24772;DHT22;12870;52.274;9.754;2023-05-10T03:41:09;13.20;99.90
24772;DHT22;12870;52.274;9.754;2023-05-10T03:43:35;13.20;99.90
24772;DHT22;12870;52.274;9.754;2023-05-10T03:46:05;13.20;99.90
24772;DHT22;12870;52.274;9.754;2023-05-10T03:48:32;13.20;99.90
24772;DHT22;12870;52.274;9.754;2023-05-10T03:50:58;13.20;99.90
24772;DHT22;12870;52.274;9.754;2023-05-10T03:53:23;13.20;99.90
24772;DHT22;12870;52.274;9.754;2023-05-10T03:55:49;13.20;99.90
24772;DHT22;12870;52.274;9.754;2023-05-10T03:58:15;13.20;99.90
24772;DHT22;12870;52.274;9.754;2023-05-10T04:00:40;13.20;99.90
24772;DHT22;12870;52.274;9.754;2023-05-10T04:03:11;13.20;99.90
24772;DHT22;12870;52.274;9.754;2023-05-10T04:05:37;13.20;99.90
24772;DHT22;12870;52.274;9.754;2023-05-10T04:08:03;13.20;99.90
24772;DHT22;12870;52.274;9.754;2023-05-10T04:10:29;13.20;99.90
24772;DHT22;12870;52.274;9.754;2023-05-10T04:12:54;13.20;99.90
24772;DHT22;12870;52.274;9.754;2023-05-10T04:15:20;13.20;99.90
24772;DHT22;12870;52.274;9.754;2023-05-10T04:17:46;13.30;99.90
24772;DHT22;12870;52.274;9.754;2023-05-10T04:20:12;13.30;99.90
24772;DHT22;12870;52.274;9.754;2023-05-10T04:22:38;13.30;99.90
24772;DHT22;12870;52.274;9.754;2023-05-10T04:25:04;13.30;99.90
24772;DHT22;12870;52.274;9.754;2023-05-10T04:27:30;13.30;99.90
24772;DHT22;12870;52.274;9.754;2023-05-10T04:29:56;13.40;99.90
24772;DHT22;12870;52.274;9.754;2023-05-10T04:32:22;13.40;99.90
24772;DHT22;12870;52.274;9.754;2023-05-10T04:34:47;13.40;99.90
24772;DHT22;12870;52.274;9.754;2023-05-10T04:37:13;13.50;99.90
24772;DHT22;12870;52.274;9.754;2023-05-10T04:39:39;13.50;99.90
24772;DHT22;12870;52.274;9.754;2023-05-10T04:42:05;13.40;99.90
24772;DHT22;12870;52.274;9.754;2023-05-10T04:44:31;13.40;99.90
24772;DHT22;12870;52.274;9.754;2023-05-10T04:46:57;13.50;99.90
24772;DHT22;12870;52.274;9.754;2023-05-10T04:49:23;13.50;99.90
24772;DHT22;12870;52.274;9.754;2023-05-10T04:51:48;13.50;99.90
24772;DHT22;12870;52.274;9.754;2023-05-10T04:54:14;13.50;99.90
24772;DHT22;12870;52.274;9.754;2023-05-10T04:56:40;13.50;99.90
24772;DHT22;12870;52.274;9.754;2023-05-10T04:59:06;13.40;99.90
24772;DHT22;12870;52.274;9.754;2023-05-10T05:01:32;13.50;99.90
24772;DHT22;12870;52.274;9.754;2023-05-10T05:03:58;13.40;99.90
24772;DHT22;12870;52.274;9.754;2023-05-10T05:06:23;13.40;99.90
24772;DHT22;12870;52.274;9.754;2023-05-10T05:08:50;13.40;99.90
24772;DHT22;12870;52.274;9.754;2023-05-10T05:11:16;13.40;99.90
24772;DHT22;12870;52.274;9.754;2023-05-10T05:13:42;13.40;99.90
24772;DHT22;12870;52.274;9.754;2023-05-10T05:16:08;13.50;99.90
24772;DHT22;12870;52.274;9.754;2023-05-10T05:18:34;13.40;99.90
24772;DHT22;12870;52.274;9.754;2023-05-10T05:21:00;13.40;99.90
24772;DHT22;12870;52.274;9.754;2023-05-10T05:23:26;13.40;99.90
24772;DHT22;12870;52.274;9.754;2023-05-10T05:25:52;13.40;99.90
24772;DHT22;12870;52.274;9.754;2023-05-10T05:28:19;13.40;99.90
24772;DHT22;12870;52.274;9.754;2023-05-10T05:30:45;13.40;99.90
24772;DHT22;12870;52.274;9.754;2023-05-10T05:33:13;13.40;99.90
24772;DHT22;12870;52.274;9.754;2023-05-10T05:35:38;13.30;99.90
24772;DHT22;12870;52.274;9.754;2023-05-10T05:38:04;13.30;99.90
24772;DHT22;12870;52.274;9.754;2023-05-10T05:40:30;13.20;99.90
24772;DHT22;12870;52.274;9.754;2023-05-10T05:42:56;13.20;99.90
24772;DHT22;12870;52.274;9.754;2023-05-10T05:45:21;13.20;99.90
24772;DHT22;12870;52.274;9.754;2023-05-10T05:47:47;13.20;99.90
24772;DHT22;12870;52.274;9.754;2023-05-10T05:50:13;13.20;99.90
24772;DHT22;12870;52.274;9.754;2023-05-10T05:52:38;13.20;99.90
24772;DHT22;12870;52.274;9.754;2023-05-10T05:55:04;13.20;99.90
24772;DHT22;12870;52.274;9.754;2023-05-10T05:57:30;13.30;99.90
24772;DHT22;12870;52.274;9.754;2023-05-10T05:59:56;13.30;99.90
24772;DHT22;12870;52.274;9.754;2023-05-10T06:02:21;13.30;99.90
24772;DHT22;12870;52.274;9.754;2023-05-10T06:04:47;13.30;99.90
24772;DHT22;12870;52.274;9.754;2023-05-10T06:07:13;13.30;99.90
24772;DHT22;12870;52.274;9.754;2023-05-10T06:09:38;13.30;99.90
24772;DHT22;12870;52.274;9.754;2023-05-10T06:12:04;13.30;99.90
24772;DHT22;12870;52.274;9.754;2023-05-10T06:14:30;13.40;99.90
24772;DHT22;12870;52.274;9.754;2023-05-10T06:16:56;13.40;99.90
24772;DHT22;12870;52.274;9.754;2023-05-10T06:19:21;13.40;99.90
24772;DHT22;12870;52.274;9.754;2023-05-10T06:21:47;13.50;99.90
24772;DHT22;12870;52.274;9.754;2023-05-10T06:24:13;13.50;99.90
24772;DHT22;12870;52.274;9.754;2023-05-10T06:26:38;13.60;99.90
24772;DHT22;12870;52.274;9.754;2023-05-10T06:29:04;13.60;99.90
24772;DHT22;12870;52.274;9.754;2023-05-10T06:31:29;13.70;99.90
24772;DHT22;12870;52.274;9.754;2023-05-10T06:33:55;13.70;99.90
24772;DHT22;12870;52.274;9.754;2023-05-10T06:36:21;13.80;99.90
24772;DHT22;12870;52.274;9.754;2023-05-10T06:38:47;13.90;99.90
24772;DHT22;12870;52.274;9.754;2023-05-10T06:41:13;13.90;99.90
24772;DHT22;12870;52.274;9.754;2023-05-10T06:43:38;14.00;99.90
24772;DHT22;12870;52.274;9.754;2023-05-10T06:46:06;14.10;99.90
24772;DHT22;12870;52.274;9.754;2023-05-10T06:48:32;14.10;99.90
24772;DHT22;12870;52.274;9.754;2023-05-10T06:50:58;14.20;99.90
24772;DHT22;12870;52.274;9.754;2023-05-10T06:53:24;14.20;99.90
24772;DHT22;12870;52.274;9.754;2023-05-10T06:55:49;14.20;99.90
24772;DHT22;12870;52.274;9.754;2023-05-10T06:58:15;14.20;99.90
24772;DHT22;12870;52.274;9.754;2023-05-10T07:00:41;14.20;99.90
24772;DHT22;12870;52.274;9.754;2023-05-10T07:03:09;14.20;99.90
24772;DHT22;12870;52.274;9.754;2023-05-10T07:05:35;14.20;99.90
24772;DHT22;12870;52.274;9.754;2023-05-10T07:08:01;14.20;99.90
24772;DHT22;12870;52.274;9.754;2023-05-10T07:10:26;14.20;99.90
24772;DHT22;12870;52.274;9.754;2023-05-10T07:12:52;14.20;99.90
24772;DHT22;12870;52.274;9.754;2023-05-10T07:15:18;14.30;99.90
24772;DHT22;12870;52.274;9.754;2023-05-10T07:17:44;14.30;99.90
24772;DHT22;12870;52.274;9.754;2023-05-10T07:20:10;14.40;99.90
24772;DHT22;12870;52.274;9.754;2023-05-10T07:22:35;14.40;99.90
24772;DHT22;12870;52.274;9.754;2023-05-10T07:25:01;14.40;99.90
24772;DHT22;12870;52.274;9.754;2023-05-10T07:27:27;14.30;99.90
24772;DHT22;12870;52.274;9.754;2023-05-10T07:29:53;14.20;99.90
24772;DHT22;12870;52.274;9.754;2023-05-10T07:32:20;14.20;99.90
24772;DHT22;12870;52.274;9.754;2023-05-10T07:34:45;14.20;99.90
24772;DHT22;12870;52.274;9.754;2023-05-10T07:37:11;14.20;99.90
24772;DHT22;12870;52.274;9.754;2023-05-10T07:39:37;14.20;99.90
24772;DHT22;12870;52.274;9.754;2023-05-10T07:42:03;14.10;99.90
24772;DHT22;12870;52.274;9.754;2023-05-10T07:44:29;14.00;99.90
24772;DHT22;12870;52.274;9.754;2023-05-10T07:46:54;14.10;99.90
24772;DHT22;12870;52.274;9.754;2023-05-10T07:49:21;14.20;99.90
24772;DHT22;12870;52.274;9.754;2023-05-10T07:51:46;14.20;99.90
24772;DHT22;12870;52.274;9.754;2023-05-10T07:54:13;14.40;99.90
24772;DHT22;12870;52.274;9.754;2023-05-10T07:56:39;14.50;99.90
24772;DHT22;12870;52.274;9.754;2023-05-10T07:59:05;14.50;99.90
24772;DHT22;12870;52.274;9.754;2023-05-10T08:01:33;14.50;99.90
24772;DHT22;12870;52.274;9.754;2023-05-10T08:03:59;14.40;99.90
24772;DHT22;12870;52.274;9.754;2023-05-10T08:06:25;14.40;99.90
24772;DHT22;12870;52.274;9.754;2023-05-10T08:08:53;14.40;99.90
24772;DHT22;12870;52.274;9.754;2023-05-10T08:11:20;14.40;99.90
24772;DHT22;12870;52.274;9.754;2023-05-10T08:13:47;14.50;99.90
24772;DHT22;12870;52.274;9.754;2023-05-10T08:16:14;14.50;99.90
24772;DHT22;12870;52.274;9.754;2023-05-10T08:18:41;14.40;99.90
24772;DHT22;12870;52.274;9.754;2023-05-10T08:21:07;14.40;99.90
24772;DHT22;12870;52.274;9.754;2023-05-10T08:23:33;14.40;99.90
24772;DHT22;12870;52.274;9.754;2023-05-10T08:25:59;14.50;99.90
24772;DHT22;12870;52.274;9.754;2023-05-10T08:28:25;14.50;99.90
24772;DHT22;12870;52.274;9.754;2023-05-10T08:30:51;14.50;99.90
24772;DHT22;12870;52.274;9.754;2023-05-10T08:33:18;14.50;99.90
24772;DHT22;12870;52.274;9.754;2023-05-10T08:35:43;14.70;99.90
24772;DHT22;12870;52.274;9.754;2023-05-10T08:38:09;14.70;99.90
24772;DHT22;12870;52.274;9.754;2023-05-10T08:40:37;14.80;99.90
24772;DHT22;12870;52.274;9.754;2023-05-10T08:43:07;15.00;99.90
24772;DHT22;12870;52.274;9.754;2023-05-10T08:45:39;15.10;99.90
24772;DHT22;12870;52.274;9.754;2023-05-10T08:48:06;15.10;99.90
24772;DHT22;12870;52.274;9.754;2023-05-10T08:50:37;15.20;99.90
24772;DHT22;12870;52.274;9.754;2023-05-10T08:53:05;15.20;99.90
24772;DHT22;12870;52.274;9.754;2023-05-10T08:55:32;15.20;99.90
24772;DHT22;12870;52.274;9.754;2023-05-10T08:57:59;15.20;99.90
24772;DHT22;12870;52.274;9.754;2023-05-10T09:00:25;15.20;99.90
24772;DHT22;12870;52.274;9.754;2023-05-10T09:02:52;15.00;99.90
24772;DHT22;12870;52.274;9.754;2023-05-10T09:05:17;14.80;99.90
24772;DHT22;12870;52.274;9.754;2023-05-10T09:07:43;14.90;99.90
24772;DHT22;12870;52.274;9.754;2023-05-10T09:10:10;14.90;99.90
24772;DHT22;12870;52.274;9.754;2023-05-10T09:12:36;14.80;99.90
24772;DHT22;12870;52.274;9.754;2023-05-10T09:15:02;14.80;99.90
24772;DHT22;12870;52.274;9.754;2023-05-10T09:17:29;14.80;99.90
24772;DHT22;12870;52.274;9.754;2023-05-10T09:20:02;14.80;99.90
24772;DHT22;12870;52.274;9.754;2023-05-10T09:22:30;14.90;99.90
24772;DHT22;12870;52.274;9.754;2023-05-10T09:25:10;15.00;99.90
24772;DHT22;12870;52.274;9.754;2023-05-10T09:27:37;15.10;99.90
24772;DHT22;12870;52.274;9.754;2023-05-10T09:30:04;15.00;99.90
24772;DHT22;12870;52.274;9.754;2023-05-10T09:32:41;15.00;99.90
24772;DHT22;12870;52.274;9.754;2023-05-10T09:35:11;14.90;99.90
24772;DHT22;12870;52.274;9.754;2023-05-10T09:37:39;15.10;99.90
24772;DHT22;12870;52.274;9.754;2023-05-10T09:40:07;15.20;99.90
24772;DHT22;12870;52.274;9.754;2023-05-10T09:42:34;15.20;99.90
24772;DHT22;12870;52.274;9.754;2023-05-10T09:45:04;15.40;99.90
24772;DHT22;12870;52.274;9.754;2023-05-10T09:47:34;15.50;99.90
24772;DHT22;12870;52.274;9.754;2023-05-10T09:50:00;15.60;99.90
24772;DHT22;12870;52.274;9.754;2023-05-10T09:52:51;15.70;99.90
24772;DHT22;12870;52.274;9.754;2023-05-10T09:55:19;15.70;99.90
24772;DHT22;12870;52.274;9.754;2023-05-10T09:57:46;15.70;99.90
24772;DHT22;12870;52.274;9.754;2023-05-10T10:00:19;15.90;99.90
24772;DHT22;12870;52.274;9.754;2023-05-10T10:03:04;15.80;99.90
24772;DHT22;12870;52.274;9.754;2023-05-10T10:05:31;15.90;99.90
24772;DHT22;12870;52.274;9.754;2023-05-10T10:07:57;16.00;99.90
24772;DHT22;12870;52.274;9.754;2023-05-10T10:10:24;16.00;99.90
24772;DHT22;12870;52.274;9.754;2023-05-10T10:12:51;16.10;99.90
24772;DHT22;12870;52.274;9.754;2023-05-10T10:15:17;16.10;99.90
24772;DHT22;12870;52.274;9.754;2023-05-10T10:17:43;16.30;99.90
24772;DHT22;12870;52.274;9.754;2023-05-10T10:20:09;16.30;99.90
24772;DHT22;12870;52.274;9.754;2023-05-10T10:22:37;16.30;99.90
24772;DHT22;12870;52.274;9.754;2023-05-10T10:25:04;16.40;99.90
24772;DHT22;12870;52.274;9.754;2023-05-10T10:30:04;16.30;99.90
24772;DHT22;12870;52.274;9.754;2023-05-10T10:35:04;16.70;99.90
24772;DHT22;12870;52.274;9.754;2023-05-10T10:37:46;16.90;99.90
24772;DHT22;12870;52.274;9.754;2023-05-10T10:40:32;16.90;99.90
24772;DHT22;12870;52.274;9.754;2023-05-10T10:46:12;17.10;99.90
24772;DHT22;12870;52.274;9.754;2023-05-10T10:48:39;17.10;99.90
24772;DHT22;12870;52.274;9.754;2023-05-10T10:51:04;17.20;99.90
24772;DHT22;12870;52.274;9.754;2023-05-10T10:53:31;17.30;99.90
24772;DHT22;12870;52.274;9.754;2023-05-10T10:56:26;17.50;99.90
24772;DHT22;12870;52.274;9.754;2023-05-10T10:58:52;17.50;99.90
24772;DHT22;12870;52.274;9.754;2023-05-10T11:01:19;17.60;99.90
24772;DHT22;12870;52.274;9.754;2023-05-10T11:04:17;17.80;99.90
24772;DHT22;12870;52.274;9.754;2023-05-10T11:06:43;17.70;99.90
24772;DHT22;12870;52.274;9.754;2023-05-10T11:09:11;17.80;99.90
24772;DHT22;12870;52.274;9.754;2023-05-10T11:11:50;17.80;99.90
24772;DHT22;12870;52.274;9.754;2023-05-10T11:14:20;18.00;99.90
24772;DHT22;12870;52.274;9.754;2023-05-10T11:16:47;18.30;99.90
24772;DHT22;12870;52.274;9.754;2023-05-10T11:19:14;18.60;99.90
24772;DHT22;12870;52.274;9.754;2023-05-10T11:21:50;18.80;99.90
24772;DHT22;12870;52.274;9.754;2023-05-10T11:24:19;19.00;99.90
24772;DHT22;12870;52.274;9.754;2023-05-10T11:26:45;19.30;99.90
24772;DHT22;12870;52.274;9.754;2023-05-10T11:29:13;19.50;99.90
24772;DHT22;12870;52.274;9.754;2023-05-10T11:31:46;19.60;99.90
24772;DHT22;12870;52.274;9.754;2023-05-10T11:34:26;19.80;99.90
24772;DHT22;12870;52.274;9.754;2023-05-10T11:36:54;20.10;99.90
24772;DHT22;12870;52.274;9.754;2023-05-10T11:39:20;20.30;99.90
24772;DHT22;12870;52.274;9.754;2023-05-10T11:41:49;20.40;99.90
24772;DHT22;12870;52.274;9.754;2023-05-10T11:44:15;20.50;99.90
24772;DHT22;12870;52.274;9.754;2023-05-10T11:46:41;20.30;99.90
24772;DHT22;12870;52.274;9.754;2023-05-10T11:49:07;20.40;99.90
24772;DHT22;12870;52.274;9.754;2023-05-10T11:51:34;20.40;99.90
24772;DHT22;12870;52.274;9.754;2023-05-10T11:54:09;20.50;99.90
24772;DHT22;12870;52.274;9.754;2023-05-10T11:56:36;20.60;99.90
24772;DHT22;12870;52.274;9.754;2023-05-10T11:59:01;20.50;99.90
24772;DHT22;12870;52.274;9.754;2023-05-10T12:01:28;20.40;99.90
24772;DHT22;12870;52.274;9.754;2023-05-10T12:03:56;20.30;99.90
24772;DHT22;12870;52.274;9.754;2023-05-10T12:06:30;20.20;99.90
24772;DHT22;12870;52.274;9.754;2023-05-10T12:08:56;20.00;99.90
24772;DHT22;12870;52.274;9.754;2023-05-10T12:11:25;19.90;99.90
24772;DHT22;12870;52.274;9.754;2023-05-10T12:13:51;19.70;99.90
24772;DHT22;12870;52.274;9.754;2023-05-10T12:16:19;19.30;99.90
24772;DHT22;12870;52.274;9.754;2023-05-10T12:18:48;19.00;99.90
24772;DHT22;12870;52.274;9.754;2023-05-10T12:21:15;18.60;99.90
24772;DHT22;12870;52.274;9.754;2023-05-10T12:23:41;18.50;99.90
24772;DHT22;12870;52.274;9.754;2023-05-10T12:26:09;18.30;99.90
24772;DHT22;12870;52.274;9.754;2023-05-10T12:28:38;18.50;99.90
24772;DHT22;12870;52.274;9.754;2023-05-10T12:31:07;18.80;99.90
24772;DHT22;12870;52.274;9.754;2023-05-10T12:33:38;19.10;99.90
24772;DHT22;12870;52.274;9.754;2023-05-10T12:36:05;19.60;99.90
24772;DHT22;12870;52.274;9.754;2023-05-10T12:38:35;19.90;99.90
24772;DHT22;12870;52.274;9.754;2023-05-10T12:41:07;20.30;99.90
24772;DHT22;12870;52.274;9.754;2023-05-10T12:43:35;20.60;99.90
24772;DHT22;12870;52.274;9.754;2023-05-10T12:48:36;20.90;99.90
24772;DHT22;12870;52.274;9.754;2023-05-10T12:51:03;20.50;99.90
24772;DHT22;12870;52.274;9.754;2023-05-10T12:53:29;20.60;99.90
24772;DHT22;12870;52.274;9.754;2023-05-10T12:55:55;20.80;99.90
24772;DHT22;12870;52.274;9.754;2023-05-10T12:58:20;20.60;99.90
24772;DHT22;12870;52.274;9.754;2023-05-10T13:00:46;20.70;99.90
24772;DHT22;12870;52.274;9.754;2023-05-10T13:03:12;21.20;99.90
24772;DHT22;12870;52.274;9.754;2023-05-10T13:05:38;21.50;99.90
24772;DHT22;12870;52.274;9.754;2023-05-10T13:08:04;21.60;99.90
24772;DHT22;12870;52.274;9.754;2023-05-10T13:10:30;21.80;99.90
24772;DHT22;12870;52.274;9.754;2023-05-10T13:13:00;21.70;99.90
24772;DHT22;12870;52.274;9.754;2023-05-10T13:15:25;21.70;99.90
24772;DHT22;12870;52.274;9.754;2023-05-10T13:17:52;21.70;99.90
24772;DHT22;12870;52.274;9.754;2023-05-10T13:20:18;21.20;99.90
24772;DHT22;12870;52.274;9.754;2023-05-10T13:22:44;20.90;99.90
24772;DHT22;12870;52.274;9.754;2023-05-10T13:25:10;20.70;99.90
24772;DHT22;12870;52.274;9.754;2023-05-10T13:27:36;20.60;99.90
24772;DHT22;12870;52.274;9.754;2023-05-10T13:30:02;20.40;99.90
24772;DHT22;12870;52.274;9.754;2023-05-10T13:32:29;20.40;99.90
24772;DHT22;12870;52.274;9.754;2023-05-10T13:34:55;20.60;99.90
24772;DHT22;12870;52.274;9.754;2023-05-10T13:37:21;20.70;99.90
24772;DHT22;12870;52.274;9.754;2023-05-10T13:39:47;20.80;99.90
24772;DHT22;12870;52.274;9.754;2023-05-10T13:42:13;20.90;99.90
24772;DHT22;12870;52.274;9.754;2023-05-10T13:44:39;21.00;99.90
24772;DHT22;12870;52.274;9.754;2023-05-10T13:47:05;21.10;99.90
24772;DHT22;12870;52.274;9.754;2023-05-10T13:49:30;21.10;99.90
24772;DHT22;12870;52.274;9.754;2023-05-10T13:51:56;20.90;99.90
24772;DHT22;12870;52.274;9.754;2023-05-10T13:54:23;20.90;99.90
24772;DHT22;12870;52.274;9.754;2023-05-10T13:56:48;20.90;99.90
24772;DHT22;12870;52.274;9.754;2023-05-10T13:59:14;20.90;99.90
24772;DHT22;12870;52.274;9.754;2023-05-10T14:01:43;20.90;99.90
24772;DHT22;12870;52.274;9.754;2023-05-10T14:04:08;20.80;99.90
24772;DHT22;12870;52.274;9.754;2023-05-10T14:06:38;20.80;99.90
24772;DHT22;12870;52.274;9.754;2023-05-10T14:09:04;20.70;99.90
24772;DHT22;12870;52.274;9.754;2023-05-10T14:11:29;20.70;99.90
24772;DHT22;12870;52.274;9.754;2023-05-10T14:13:55;20.90;99.90
24772;DHT22;12870;52.274;9.754;2023-05-10T14:16:21;20.90;99.90
24772;DHT22;12870;52.274;9.754;2023-05-10T14:18:47;20.90;99.90
24772;DHT22;12870;52.274;9.754;2023-05-10T14:21:13;21.00;99.90
24772;DHT22;12870;52.274;9.754;2023-05-10T14:23:38;20.80;99.90
24772;DHT22;12870;52.274;9.754;2023-05-10T14:26:04;20.80;99.90
24772;DHT22;12870;52.274;9.754;2023-05-10T14:28:30;20.80;99.90
24772;DHT22;12870;52.274;9.754;2023-05-10T14:30:56;20.90;99.90
24772;DHT22;12870;52.274;9.754;2023-05-10T14:33:22;21.00;99.90
24772;DHT22;12870;52.274;9.754;2023-05-10T14:35:48;21.20;99.90
24772;DHT22;12870;52.274;9.754;2023-05-10T14:38:14;21.40;99.90
24772;DHT22;12870;52.274;9.754;2023-05-10T14:40:40;21.50;99.90
24772;DHT22;12870;52.274;9.754;2023-05-10T14:43:05;21.30;99.90
24772;DHT22;12870;52.274;9.754;2023-05-10T14:45:31;21.30;99.90
24772;DHT22;12870;52.274;9.754;2023-05-10T14:47:57;21.50;99.90
24772;DHT22;12870;52.274;9.754;2023-05-10T14:50:23;21.50;99.90
24772;DHT22;12870;52.274;9.754;2023-05-10T14:52:49;21.40;99.90
24772;DHT22;12870;52.274;9.754;2023-05-10T14:55:15;21.30;99.90
24772;DHT22;12870;52.274;9.754;2023-05-10T14:57:41;21.20;99.90
24772;DHT22;12870;52.274;9.754;2023-05-10T15:00:07;21.00;99.90
24772;DHT22;12870;52.274;9.754;2023-05-10T15:02:33;20.70;99.90
24772;DHT22;12870;52.274;9.754;2023-05-10T15:04:59;20.60;99.90
24772;DHT22;12870;52.274;9.754;2023-05-10T15:07:24;20.50;99.90
24772;DHT22;12870;52.274;9.754;2023-05-10T15:09:50;20.40;99.90
24772;DHT22;12870;52.274;9.754;2023-05-10T15:12:17;20.20;99.90
24772;DHT22;12870;52.274;9.754;2023-05-10T15:14:43;20.00;99.90
24772;DHT22;12870;52.274;9.754;2023-05-10T15:17:09;19.80;99.90
24772;DHT22;12870;52.274;9.754;2023-05-10T15:19:35;19.60;99.90
24772;DHT22;12870;52.274;9.754;2023-05-10T15:22:01;19.40;99.90
24772;DHT22;12870;52.274;9.754;2023-05-10T15:24:28;19.20;99.90
24772;DHT22;12870;52.274;9.754;2023-05-10T15:26:53;19.10;99.90
24772;DHT22;12870;52.274;9.754;2023-05-10T15:29:19;19.10;99.90
24772;DHT22;12870;52.274;9.754;2023-05-10T15:31:49;18.90;99.90
24772;DHT22;12870;52.274;9.754;2023-05-10T15:34:16;18.60;99.90
24772;DHT22;12870;52.274;9.754;2023-05-10T15:36:42;18.40;99.90
24772;DHT22;12870;52.274;9.754;2023-05-10T15:39:07;18.20;99.90
24772;DHT22;12870;52.274;9.754;2023-05-10T15:41:35;17.90;99.90
24772;DHT22;12870;52.274;9.754;2023-05-10T15:44:01;17.70;99.90
24772;DHT22;12870;52.274;9.754;2023-05-10T15:46:28;17.50;99.90
24772;DHT22;12870;52.274;9.754;2023-05-10T15:48:54;17.20;99.90
24772;DHT22;12870;52.274;9.754;2023-05-10T15:51:20;17.10;99.90
24772;DHT22;12870;52.274;9.754;2023-05-10T15:53:46;17.00;99.90
24772;DHT22;12870;52.274;9.754;2023-05-10T15:56:11;16.90;99.90
24772;DHT22;12870;52.274;9.754;2023-05-10T15:58:38;16.80;99.90
24772;DHT22;12870;52.274;9.754;2023-05-10T16:01:04;16.70;99.90